createdAt,value
2022-10-18T00:05:17.403Z,63.00
2022-10-18T00:10:33.125Z,62.90
2022-10-18T00:15:48.053Z,62.90
2022-10-18T00:21:03.070Z,63.10
2022-10-18T00:26:17.875Z,63.60
2022-10-18T00:31:33.135Z,63.40
2022-10-18T00:36:48.148Z,63.40
2022-10-18T00:42:03.074Z,63.40
2022-10-18T00:47:18.442Z,63.30
2022-10-18T00:52:34.210Z,63.20
2022-10-18T00:57:49.147Z,63.40
2022-10-18T01:03:41.487Z,63.40
2022-10-18T01:08:57.517Z,63.30
2022-10-18T01:14:13.165Z,63.20
2022-10-18T01:19:28.336Z,63.10
2022-10-18T01:24:44.093Z,63.10
2022-10-18T01:29:59.042Z,63.10
2022-10-18T01:35:14.083Z,63.00
2022-10-18T01:40:29.103Z,63.00
2022-10-18T01:45:44.070Z,63.00
2022-10-18T01:50:59.336Z,63.00
2022-10-18T01:56:15.424Z,62.90
2022-10-18T02:01:31.418Z,63.20
2022-10-18T02:06:47.109Z,63.10
2022-10-18T02:12:02.075Z,63.70
2022-10-18T02:17:17.377Z,63.90
2022-10-18T02:22:33.428Z,63.60
2022-10-18T02:27:49.113Z,63.20
2022-10-18T02:33:04.119Z,62.90
2022-10-18T02:38:19.400Z,62.80
2022-10-18T02:43:35.393Z,62.70
2022-10-18T02:48:51.104Z,62.70
2022-10-18T02:54:06.437Z,62.60
2022-10-18T02:59:22.468Z,62.40
2022-10-18T03:04:38.075Z,62.30
2022-10-18T03:09:53.104Z,62.20
2022-10-18T03:15:08.184Z,62.20
2022-10-18T03:20:23.406Z,62.10
2022-10-18T03:25:41.603Z,62.00
2022-10-18T03:31:00.386Z,62.10
2022-10-18T03:36:16.097Z,62.50
2022-10-18T03:41:31.469Z,61.90
2022-10-18T03:46:47.434Z,61.10
2022-10-18T03:52:03.093Z,60.90
2022-10-18T03:57:18.129Z,60.80
2022-10-18T04:02:33.304Z,60.70
2022-10-18T04:07:49.108Z,60.50
2022-10-18T04:13:04.100Z,60.70
2022-10-18T04:18:19.080Z,60.40
2022-10-18T04:23:37.935Z,59.60
2022-10-18T04:28:54.288Z,59.30
2022-10-18T04:34:10.098Z,59.00
2022-10-18T04:39:25.087Z,58.80
2022-10-18T04:44:40.092Z,58.70
2022-10-18T04:49:55.173Z,58.60
2022-10-18T04:55:10.414Z,58.50
2022-10-18T05:00:26.313Z,58.40
2022-10-18T05:06:00.865Z,58.40
2022-10-18T05:11:17.111Z,58.30
2022-10-18T05:16:32.414Z,58.30
2022-10-18T05:21:48.091Z,58.20
2022-10-18T05:27:03.396Z,58.10
2022-10-18T05:32:18.397Z,58.10
2022-10-18T05:37:34.407Z,58.00
2022-10-18T05:42:50.121Z,58.00
2022-10-18T05:48:05.124Z,57.90
2022-10-18T05:53:37.241Z,58.50
2022-10-18T05:58:53.131Z,57.80
2022-10-18T06:04:08.217Z,57.70
2022-10-18T06:09:23.379Z,57.60
2022-10-18T06:14:39.208Z,57.50
2022-10-18T06:19:54.216Z,57.50
2022-10-18T06:25:09.163Z,57.40
2022-10-18T06:30:24.501Z,57.40
2022-10-18T06:35:40.108Z,57.30
2022-10-18T06:40:55.494Z,57.20
2022-10-18T06:46:10.886Z,57.10
2022-10-18T06:51:26.434Z,57.00
2022-10-18T06:56:42.144Z,57.00
2022-10-18T07:01:57.130Z,56.80
2022-10-18T07:07:12.157Z,56.80
2022-10-18T07:12:27.392Z,56.50
2022-10-18T07:17:43.093Z,56.30
2022-10-18T07:22:58.171Z,56.30
2022-10-18T07:28:14.113Z,56.40
2022-10-18T07:33:28.877Z,56.30
2022-10-18T07:38:44.105Z,56.30
2022-10-18T07:43:59.400Z,56.30
2022-10-18T07:49:15.372Z,56.40
2022-10-18T07:54:31.109Z,56.50
2022-10-18T07:59:46.137Z,56.40
2022-10-18T08:05:00.845Z,56.50
2022-10-18T08:10:16.158Z,56.40
2022-10-18T08:15:31.105Z,56.40
2022-10-18T08:20:46.153Z,56.50
2022-10-18T08:26:01.112Z,56.60
2022-10-18T08:31:16.493Z,56.50
2022-10-18T08:36:32.115Z,56.60
2022-10-18T08:41:47.105Z,56.60
2022-10-18T08:47:02.180Z,57.20
2022-10-18T08:52:17.315Z,56.50
2022-10-18T08:57:32.468Z,56.50
2022-10-18T09:02:48.107Z,56.60
2022-10-18T09:08:03.144Z,56.70
2022-10-18T09:13:18.122Z,56.70
2022-10-18T09:18:33.134Z,56.70
2022-10-18T09:23:48.217Z,56.80
2022-10-18T09:29:03.008Z,56.80
2022-10-18T09:34:18.145Z,56.90
2022-10-18T09:39:33.101Z,56.90
2022-10-18T09:44:48.144Z,57.50
2022-10-18T09:50:03.140Z,56.80
2022-10-18T09:55:18.088Z,56.50
2022-10-18T10:00:33.489Z,56.50
2022-10-18T10:05:49.131Z,56.10
2022-10-18T10:11:04.203Z,55.80
2022-10-18T10:16:19.190Z,55.40
2022-10-18T10:21:34.163Z,55.10
2022-10-18T10:26:49.168Z,54.60
2022-10-18T10:32:04.154Z,54.30
2022-10-18T10:37:19.200Z,54.20
2022-10-18T10:42:34.370Z,53.80
2022-10-18T10:47:50.150Z,53.90
2022-10-18T10:53:05.182Z,53.30
2022-10-18T10:58:20.151Z,53.10
2022-10-18T11:03:34.921Z,52.80
2022-10-18T11:08:50.477Z,52.50
2022-10-18T11:14:24.710Z,52.10
2022-10-18T11:19:41.160Z,51.80
2022-10-18T11:24:55.921Z,51.50
2022-10-18T11:30:11.271Z,51.40
2022-10-18T11:35:26.162Z,51.40
2022-10-18T11:40:40.911Z,51.60
2022-10-18T11:45:56.118Z,51.40
2022-10-18T11:51:11.164Z,51.30
2022-10-18T11:56:26.142Z,51.40
2022-10-18T12:01:41.146Z,51.90
2022-10-18T12:06:56.152Z,52.20
2022-10-18T12:12:11.117Z,51.70
2022-10-18T12:17:42.816Z,51.30
2022-10-18T12:22:59.490Z,50.90
2022-10-18T12:28:15.422Z,50.40
2022-10-18T12:33:31.147Z,50.20
2022-10-18T12:38:46.149Z,49.10
2022-10-18T12:44:01.110Z,48.90
2022-10-18T12:49:16.147Z,49.30
2022-10-18T12:54:31.408Z,49.60
2022-10-18T12:59:47.429Z,49.20
2022-10-18T13:05:03.157Z,48.80
2022-10-18T13:10:18.159Z,48.10
2022-10-18T13:15:34.316Z,51.00
2022-10-18T13:20:50.179Z,54.40
2022-10-18T13:26:05.138Z,53.40
2022-10-18T13:31:20.137Z,52.30
2022-10-18T13:36:35.122Z,52.80
2022-10-18T13:41:53.662Z,51.20
2022-10-18T13:47:10.182Z,51.80
2022-10-18T13:52:25.142Z,51.30
2022-10-18T13:57:40.147Z,50.60
2022-10-18T14:02:59.734Z,49.30
2022-10-18T14:08:15.216Z,49.90
2022-10-18T14:13:30.198Z,49.50
2022-10-18T14:18:45.141Z,49.60
2022-10-18T14:24:00.165Z,48.90
2022-10-18T14:29:15.002Z,49.20
2022-10-18T14:34:30.143Z,49.60
2022-10-18T14:39:45.194Z,49.50
2022-10-18T14:45:00.248Z,48.90
2022-10-18T14:50:15.176Z,47.60
2022-10-18T14:55:29.997Z,48.10
2022-10-18T15:00:47.736Z,48.80
2022-10-18T15:06:04.477Z,49.40
2022-10-18T15:11:20.478Z,49.30
2022-10-18T15:16:36.152Z,48.60
2022-10-18T15:21:53.552Z,48.60
2022-10-18T15:27:11.467Z,49.30
2022-10-18T15:32:27.153Z,49.80
2022-10-18T15:37:42.194Z,50.30
2022-10-18T15:42:57.508Z,50.40
2022-10-18T15:48:13.204Z,50.30
2022-10-18T15:53:28.128Z,50.50
2022-10-18T15:58:43.498Z,50.80
2022-10-18T16:03:59.179Z,50.80
2022-10-18T16:09:14.183Z,50.80
2022-10-18T16:14:29.190Z,50.80
2022-10-18T16:19:44.184Z,50.70
2022-10-18T16:24:59.465Z,50.80
2022-10-18T16:30:16.356Z,50.90
2022-10-18T16:35:32.213Z,50.90
2022-10-18T16:40:47.548Z,50.80
2022-10-18T16:46:03.191Z,50.90
2022-10-18T16:51:18.141Z,50.90
2022-10-18T16:56:33.472Z,50.90
2022-10-18T17:01:49.217Z,51.00
2022-10-18T17:07:04.225Z,51.00
2022-10-18T17:12:19.607Z,51.10
2022-10-18T17:17:35.380Z,51.10
2022-10-18T17:22:51.209Z,51.20
2022-10-18T17:28:06.124Z,51.20
2022-10-18T17:33:20.917Z,51.30
2022-10-18T17:38:36.207Z,51.40
2022-10-18T17:43:51.232Z,51.40
2022-10-18T17:49:06.192Z,51.40
2022-10-18T17:54:21.222Z,51.50
2022-10-18T17:59:36.518Z,51.70
2022-10-18T18:04:52.150Z,51.80
2022-10-18T18:10:07.197Z,52.00
2022-10-18T18:15:22.208Z,52.10
2022-10-18T18:20:37.419Z,52.30
2022-10-18T18:25:53.236Z,52.30
2022-10-18T18:31:08.163Z,52.50
2022-10-18T18:36:23.218Z,52.50
2022-10-18T18:41:38.156Z,52.50
2022-10-18T18:46:53.221Z,52.60
2022-10-18T18:52:08.235Z,52.60
2022-10-18T18:57:23.150Z,52.70
2022-10-18T19:02:38.539Z,52.70
2022-10-18T19:07:54.191Z,52.80
2022-10-18T19:13:09.179Z,52.80
2022-10-18T19:18:24.569Z,52.80
2022-10-18T19:23:40.172Z,52.90
2022-10-18T19:28:55.248Z,52.90
2022-10-18T19:34:10.649Z,52.90
2022-10-18T19:39:25.931Z,53.10
2022-10-18T19:44:41.200Z,53.50
2022-10-18T19:49:56.156Z,53.60
2022-10-18T19:55:11.528Z,53.50
2022-10-18T20:00:27.228Z,53.40
2022-10-18T20:05:42.240Z,53.40
2022-10-18T20:10:57.176Z,53.50
2022-10-18T20:16:12.168Z,53.40
2022-10-18T20:21:27.214Z,53.40
2022-10-18T20:26:42.590Z,53.20
2022-10-18T20:31:58.175Z,53.00
2022-10-18T20:37:13.191Z,53.00
2022-10-18T20:42:28.392Z,53.00
2022-10-18T20:47:44.181Z,52.80
2022-10-18T20:52:59.154Z,52.70
2022-10-18T20:58:14.493Z,52.70
2022-10-18T21:03:30.178Z,52.60
2022-10-18T21:08:45.196Z,52.50
2022-10-18T21:14:00.240Z,52.30
2022-10-18T21:19:15.186Z,52.20
2022-10-18T21:24:30.173Z,52.20
2022-10-18T21:29:45.181Z,52.10
2022-10-18T21:35:00.490Z,52.10
2022-10-18T21:40:16.181Z,52.00
2022-10-18T21:45:31.208Z,52.10
2022-10-18T21:50:46.220Z,52.10
2022-10-18T21:56:01.254Z,52.20
2022-10-18T22:01:16.293Z,52.50
2022-10-18T22:06:32.314Z,52.60
2022-10-18T22:11:47.186Z,52.30
2022-10-18T22:17:02.474Z,52.10
2022-10-18T22:22:18.173Z,52.00
2022-10-18T22:27:33.497Z,51.90
2022-10-18T22:32:49.233Z,51.70
2022-10-18T22:38:04.187Z,51.60
2022-10-18T22:43:19.445Z,51.60
2022-10-18T22:48:35.201Z,51.60
2022-10-18T22:53:50.046Z,51.80
2022-10-18T22:59:05.474Z,51.90
2022-10-18T23:04:21.220Z,51.70
2022-10-18T23:09:36.220Z,51.50
2022-10-18T23:14:51.193Z,51.30
2022-10-18T23:20:06.198Z,51.20
2022-10-18T23:25:21.192Z,51.20
2022-10-18T23:30:36.524Z,51.20
2022-10-18T23:35:52.517Z,51.10
2022-10-18T23:41:08.178Z,51.00
2022-10-18T23:46:23.497Z,50.90
2022-10-18T23:51:39.438Z,51.00
2022-10-18T23:56:55.520Z,50.90
